Vohburg — V2OW7 — position and weather

sailwx.info

Track history (hours):
 
Tides and Currents Weather Stations Pressure Air Temp Water Temp Dewpoint Dewpoint Depression Visibility Wind Speed Wind Dir Waves Ship Positions

Vohburg

Last reported at 2017-Jun-25 01:41 UTC. Time now 2017-Jun-25 20:53 UTC.
Position N 58°18' E 021°28'.

Length 140 m; draft 7.2 m.

MMSI: 305773000.

Date/timePositionNaut miles runAvg speedWind from/ knotsBaromVisibWave heightAir tempDewpointWater temp
2017-Jun-25 01:41N 58°18' E 021°28'316.5
2017-Jun-25 01:30N 58°20' E 021°26'816.0
2017-Jun-25 01:00N 58°28' E 021°31'816.2
2017-Jun-25 00:31N 58°35' E 021°37'816.3
2017-Jun-25 00:00N 58°43' E 021°43'816.5
2017-Jun-24 23:30N 58°50' E 021°50'816.2
2017-Jun-24 23:01N 58°58' E 021°55'816.5
2017-Jun-24 22:30N 59°06' E 021°58'816.2
2017-Jun-24 22:00N 59°13' E 022°04'816.5
2017-Jun-24 21:30N 59°20' E 022°14'816.4
2017-Jun-24 21:00N 59°26' E 022°24'816.7
2017-Jun-24 20:30N 59°31' E 022°38'917.0
2017-Jun-24 20:00N 59°33' E 022°54'817.0
2017-Jun-24 19:31N 59°36' E 023°10'817.0
2017-Jun-24 19:00N 59°38' E 023°26'816.9
2017-Jun-24 18:30N 59°41' E 023°42'917.2
2017-Jun-24 18:00N 59°43' E 023°58'917.2
2017-Jun-24 17:30N 59°46' E 024°15'917.4
2017-Jun-24 17:00N 59°48' E 024°31'917.5
2017-Jun-24 16:31N 59°50' E 024°48'917.3
2017-Jun-24 16:00N 59°52' E 025°05'917.6
2017-Jun-24 15:31N 59°53' E 025°23'917.5
2017-Jun-24 15:00N 59°54' E 025°40'1717.5
2017-Jun-24 14:00N 59°59' E 026°13'917.4
2017-Jun-24 13:30N 60°01' E 026°30'917.2
2017-Jun-24 13:00N 60°01' E 026°48'917.1
2017-Jun-24 12:30N 60°00' E 027°05'917.2
2017-Jun-24 12:01N 60°04' E 027°20'917.2
2017-Jun-24 11:30N 60°09' E 027°34'815.7
2017-Jun-24 11:00N 60°11' E 027°49'917.1
2017-Jun-24 10:31N 60°10' E 028°06'816.8
2017-Jun-24 10:00N 60°06' E 028°21'816.4
2017-Jun-24 09:30N 60°03' E 028°36'816.9
2017-Jun-24 09:00N 60°03' E 028°53'816.8
2017-Jun-24 08:30N 60°02' E 029°10'816.5
2017-Jun-24 08:00N 60°02' E 029°27'510.2
2017-Jun-24 07:30N 60°00' E 029°37'3 6.0
2017-Jun-24 07:00N 59°60' E 029°42'1 1.1
2017-Jun-24 06:28N 60°00' E 029°43'0 0.0
2017-Jun-24 05:58N 60°00' E 029°43'0 0.0
2017-Jun-24 05:28N 60°00' E 029°43'0 0.0
2017-Jun-24 04:58N 60°00' E 029°43'0 0.0
2017-Jun-24 04:29N 60°00' E 029°43'0 0.0
2017-Jun-24 03:53N 60°00' E 029°43'0 0.0
2017-Jun-24 03:26N 60°00' E 029°43'0 0.0
2017-Jun-24 02:56N 60°00' E 029°43'0 0.0
2017-Jun-24 02:29N 60°00' E 029°43'0 0.0
2017-Jun-24 01:59N 60°00' E 029°43'0 0.0
2017-Jun-24 01:26N 60°00' E 029°43'0 0.0
2017-Jun-24 00:59N 60°00' E 029°43'0 0.0
2017-Jun-24 00:29N 60°00' E 029°43'0 0.0
2017-Jun-24 00:00N 60°00' E 029°43'0 0.0
2017-Jun-23 23:27N 60°00' E 029°43'0 0.0
2017-Jun-23 22:59N 60°00' E 029°43'0 0.0
2017-Jun-23 22:29N 60°00' E 029°43'0 0.0
2017-Jun-23 21:59N 60°00' E 029°43'0 0.0
2017-Jun-23 21:27N 60°00' E 029°43'0 0.0
2017-Jun-23 20:41N 60°00' E 029°43'0 0.0
2017-Jun-23 20:29N 60°00' E 029°43'0 0.0
2017-Jun-23 19:59N 60°00' E 029°43'0 0.0
2017-Jun-23 19:23N 60°00' E 029°43'0 0.0
2017-Jun-23 18:53N 60°00' E 029°43'0 0.0
2017-Jun-23 18:28N 60°00' E 029°43'0 0.0
2017-Jun-23 17:57N 60°00' E 029°43'0 0.0
2017-Jun-23 17:28N 60°00' E 029°43'0 0.0
2017-Jun-23 16:53N 60°00' E 029°43'0 0.0
2017-Jun-23 16:25N 60°00' E 029°43'0 0.0
2017-Jun-23 16:00N 60°00' E 029°43'0 0.0
2017-Jun-23 15:29N 60°00' E 029°43'0 0.0
2017-Jun-23 14:59N 60°00' E 029°43'0 0.0
2017-Jun-23 14:30N 60°00' E 029°43'1 1.0
2017-Jun-23 13:30N 59°59' E 029°42'611.6
2017-Jun-23 13:00N 60°01' E 029°31'6 0.8
2017-Jun-23 04:36N 60°01' E 029°18'112.8
2017-Jun-23 04:30N 60°01' E 029°16'612.7
2017-Jun-23 04:01N 60°02' E 029°03'510.7
2017-Jun-23 03:30N 60°02' E 028°53'510.9
2017-Jun-23 03:00N 60°02' E 028°42'510.9
2017-Jun-23 02:30N 60°02' E 028°31'510.8
2017-Jun-23 02:00N 60°05' E 028°21'510.6
2017-Jun-23 01:30N 60°07' E 028°12'511.0
2017-Jun-23 01:00N 60°09' E 028°01'611.0
2017-Jun-23 00:30N 60°10' E 027°50'510.1
2017-Jun-23 00:00N 60°09' E 027°41'510.9
2017-Jun-22 23:30N 60°06' E 027°31'510.9
2017-Jun-22 23:00N 60°03' E 027°22'510.9
2017-Jun-22 22:30N 60°01' E 027°13'510.8
2017-Jun-22 22:00N 59°58' E 027°03'611.0
2017-Jun-22 21:30N 59°59' E 026°52'511.0
2017-Jun-22 21:00N 59°59' E 026°41'611.0
2017-Jun-22 20:30N 59°58' E 026°31'611.2
2017-Jun-22 20:00N 59°58' E 026°19'510.9
2017-Jun-22 19:30N 59°58' E 026°09'510.9
2017-Jun-22 19:00N 59°58' E 025°58'510.9
2017-Jun-22 18:30N 59°57' E 025°47'510.9
2017-Jun-22 18:00N 59°57' E 025°36'510.7
2017-Jun-22 17:30N 59°58' E 025°25'510.8
2017-Jun-22 17:00N 60°01' E 025°16'510.3
2017-Jun-22 16:30N 60°05' E 025°11'510.7
2017-Jun-22 16:01N 60°11' E 025°13'2 4.2
2017-Jun-22 15:29N 60°13' E 025°12'0 0.0
2017-Jun-22 14:59N 60°13' E 025°12'0 0.0
2017-Jun-22 14:29N 60°13' E 025°12'0 0.0
2017-Jun-22 13:27N 60°13' E 025°12'0 0.0
2017-Jun-22 13:00N 60°13' E 025°12'0 0.0
2017-Jun-22 12:30N 60°13' E 025°12'0 0.0
2017-Jun-22 12:00N 60°13' E 025°12'0 0.0
2017-Jun-22 11:26N 60°13' E 025°12'0 0.0
2017-Jun-22 10:59N 60°13' E 025°12'0 0.0
2017-Jun-22 10:29N 60°13' E 025°12'0 0.0
2017-Jun-22 09:59N 60°13' E 025°12'0 0.0
2017-Jun-22 09:29N 60°13' E 025°12'0 0.0
2017-Jun-22 09:00N 60°13' E 025°12'0 0.0
2017-Jun-22 08:30N 60°13' E 025°12'0 0.0
2017-Jun-22 07:59N 60°13' E 025°12'0 0.0
2017-Jun-22 07:28N 60°13' E 025°12'0 0.0
2017-Jun-22 06:58N 60°13' E 025°12'0 0.0
2017-Jun-22 06:29N 60°13' E 025°12'0 0.6
2017-Jun-22 06:00N 60°13' E 025°12'4 8.2
2017-Jun-22 05:31N 60°09' E 025°12'815.7
2017-Jun-22 05:01N 60°01' E 025°06'815.9
2017-Jun-22 04:30N 59°55' E 024°58'816.1
2017-Jun-22 04:00N 59°49' E 024°46'815.9
2017-Jun-22 03:30N 59°45' E 024°33'816.0
2017-Jun-22 03:01N 59°43' E 024°17'816.1
2017-Jun-22 02:31N 59°40' E 024°02'816.3
2017-Jun-22 02:00N 59°38' E 023°47'816.2
2017-Jun-22 01:30N 59°35' E 023°32'816.0
2017-Jun-22 01:01N 59°33' E 023°17'816.0
2017-Jun-22 00:30N 59°30' E 023°02'816.0
2017-Jun-22 00:01N 59°27' E 022°47'816.2
2017-Jun-21 23:30N 59°24' E 022°33'816.3
2017-Jun-21 23:00N 59°19' E 022°20'816.3
2017-Jun-21 22:30N 59°13' E 022°08'816.3
2017-Jun-21 22:00N 59°08' E 021°56'816.3
2017-Jun-21 21:30N 59°02' E 021°45'816.7
2017-Jun-21 21:01N 58°56' E 021°35'816.1
2017-Jun-21 20:30N 58°49' E 021°25'816.2
2017-Jun-21 20:00N 58°43' E 021°16'816.4
2017-Jun-21 19:30N 58°36' E 021°06'18815.9
2017-Jun-21 07:43N 56°15' E 017°16'416.2
2017-Jun-21 07:30N 56°13' E 017°11'816.1
2017-Jun-21 07:00N 56°08' E 016°59'816.2
2017-Jun-21 06:30N 56°04' E 016°48'816.3
2017-Jun-21 06:00N 55°60' E 016°35'816.3
2017-Jun-21 05:30N 55°56' E 016°22'816.3
2017-Jun-21 05:00N 55°52' E 016°09'816.3
2017-Jun-21 04:30N 55°48' E 015°57'816.2
2017-Jun-21 04:00N 55°44' E 015°44'816.3
2017-Jun-21 03:30N 55°39' E 015°32'816.2
2017-Jun-21 03:00N 55°36' E 015°19'816.5
2017-Jun-21 02:30N 55°32' E 015°06'816.2
2017-Jun-21 02:00N 55°28' E 014°54'816.3
2017-Jun-21 01:30N 55°24' E 014°41'816.1
2017-Jun-21 01:00N 55°18' E 014°31'816.5
2017-Jun-21 00:31N 55°12' E 014°22'816.4
2017-Jun-21 00:01N 55°06' E 014°13'816.3
2017-Jun-20 23:30N 55°00' E 014°03'816.6
2017-Jun-20 23:00N 54°57' E 013°49'816.7
2017-Jun-20 22:30N 54°54' E 013°36'816.5
2017-Jun-20 22:00N 54°50' E 013°23'1616.2
2017-Jun-20 21:02N 54°45' E 012°57'016.3
2017-Jun-20 21:00N 54°45' E 012°56'1616.1
2017-Jun-20 20:02N 54°37' E 012°33'016.1
2017-Jun-20 20:00N 54°37' E 012°32'816.2
2017-Jun-20 19:29N 54°32' E 012°20'815.5
2017-Jun-20 19:00N 54°26' E 012°13'816.4
2017-Jun-20 18:30N 54°22' E 012°01'2416.0
2017-Jun-20 16:59N 54°09' E 011°25'815.9
2017-Jun-20 16:30N 54°06' E 011°13'4 0.1
2017-Jun-19 14:48N 54°09' E 011°10'1813.5
2017-Jun-19 13:27N 54°25' E 011°24'613.3
2017-Jun-19 13:01N 54°30' E 011°20'713.4
2017-Jun-19 12:30N 54°34' E 011°11'714.7
2017-Jun-19 12:01N 54°38' E 011°00'713.4
2017-Jun-19 11:30N 54°43' E 010°52'713.7
2017-Jun-19 11:01N 54°50' E 010°51'713.8
2017-Jun-19 10:31N 54°56' E 010°55'713.7
2017-Jun-19 10:00N 55°02' E 011°01'714.0
2017-Jun-19 09:31N 55°09' E 011°03'712.7
2017-Jun-19 08:59N 55°16' E 011°04'713.8
2017-Jun-19 08:29N 55°22' E 011°01'3013.0
2017-Jun-19 06:11N 55°52' E 010°52'3513.5
2017-Jun-19 03:35N 56°26' E 011°05'114.5
2017-Jun-19 03:30N 56°27' E 011°05'714.1
2017-Jun-19 03:00N 56°34' E 011°04'713.5
2017-Jun-19 02:30N 56°41' E 011°02'713.8
2017-Jun-19 02:00N 56°47' E 010°56'714.2
2017-Jun-19 01:30N 56°54' E 010°50'714.5
2017-Jun-19 01:00N 57°01' E 010°50'714.9
2017-Jun-19 00:30N 57°08' E 010°46'714.8
2017-Jun-19 00:00N 57°15' E 010°43'815.0
2017-Jun-18 23:30N 57°23' E 010°42'815.4
2017-Jun-18 23:00N 57°30' E 010°44'715.2
2017-Jun-18 22:30N 57°38' E 010°45'815.9
2017-Jun-18 22:00N 57°46' E 010°46'816.5
2017-Jun-18 21:30N 57°46' E 010°31'816.9
2017-Jun-18 21:00N 57°43' E 010°16'816.7
2017-Jun-18 20:30N 57°40' E 010°01'816.4
2017-Jun-18 20:00N 57°36' E 009°47'816.1
2017-Jun-18 19:30N 57°32' E 009°34'11515.8
2017-Jun-18 12:13N 56°07' E 007°13'916.3
2017-Jun-18 11:40N 55°59' E 007°04'316.2
2017-Jun-18 11:28N 55°56' E 007°01'716.3
2017-Jun-18 11:00N 55°50' E 006°55'816.3
2017-Jun-18 10:30N 55°43' E 006°47'816.2
2017-Jun-18 10:00N 55°36' E 006°40'816.2
2017-Jun-18 09:30N 55°29' E 006°32'816.3
2017-Jun-18 09:00N 55°22' E 006°25'2116.1
2017-Jun-18 07:41N 55°04' E 006°05'7916.4
2017-Jun-18 02:50N 53°54' E 005°01'616.8
2017-Jun-18 02:29N 53°48' E 004°58'1116.8
2017-Jun-18 01:50N 53°38' E 004°52'616.7
2017-Jun-18 01:30N 53°33' E 004°48'817.0
2017-Jun-18 01:00N 53°25' E 004°42'917.3
2017-Jun-18 00:31N 53°17' E 004°37'918.0
2017-Jun-18 00:01N 53°09' E 004°30'917.6
2017-Jun-17 23:30N 53°01' E 004°23'917.8
2017-Jun-17 23:00N 52°54' E 004°16'917.3
2017-Jun-17 22:30N 52°46' E 004°09'917.4
2017-Jun-17 22:00N 52°39' E 003°59'917.5
2017-Jun-17 21:30N 52°33' E 003°50'917.5
2017-Jun-17 21:00N 52°26' E 003°41'917.7
2017-Jun-17 20:30N 52°18' E 003°36'918.8
2017-Jun-17 20:00N 52°09' E 003°29'816.6
2017-Jun-17 19:30N 52°01' E 003°25'918.2
2017-Jun-17 19:00N 51°52' E 003°21'816.1
2017-Jun-17 18:30N 51°45' E 003°15'917.4
2017-Jun-17 18:00N 51°37' E 003°11'815.9
2017-Jun-17 17:30N 51°31' E 003°02'917.2
2017-Jun-17 17:00N 51°28' E 002°49'611.7
2017-Jun-17 16:30N 51°22' E 002°47'816.5
2017-Jun-17 16:00N 51°24' E 003°00'714.7
2017-Jun-17 15:30N 51°22' E 003°12'1 1.5
2017-Jun-17 14:58N 51°21' E 003°11'0 0.0
2017-Jun-17 14:28N 51°21' E 003°11'0 0.0
2017-Jun-17 13:28N 51°21' E 003°11'0 0.1
2017-Jun-17 12:58N 51°21' E 003°11'0 0.1
2017-Jun-17 12:29N 51°21' E 003°11'0 0.0
2017-Jun-17 11:56N 51°21' E 003°11'0 0.0
2017-Jun-17 11:28N 51°21' E 003°11'0 0.0
2017-Jun-17 10:58N 51°21' E 003°11'0 0.0
2017-Jun-17 10:30N 51°21' E 003°11'0 0.0
2017-Jun-17 09:58N 51°21' E 003°11'0 0.0
2017-Jun-17 09:28N 51°21' E 003°11'0 0.0
2017-Jun-17 08:59N 51°21' E 003°11'0 0.0
2017-Jun-17 08:30N 51°21' E 003°11'0 0.0
2017-Jun-17 07:59N 51°21' E 003°11'0 0.0
2017-Jun-17 07:28N 51°21' E 003°11'0 0.0
2017-Jun-17 06:58N 51°21' E 003°11'0 0.0
2017-Jun-17 06:28N 51°21' E 003°11'0 0.0
2017-Jun-17 05:58N 51°21' E 003°11'0 0.0
2017-Jun-17 05:28N 51°21' E 003°11'0 0.0
2017-Jun-17 05:00N 51°21' E 003°11'0 0.0
2017-Jun-17 04:30N 51°21' E 003°11'0 0.0
2017-Jun-17 04:00N 51°21' E 003°11'0 0.0
2017-Jun-17 03:30N 51°21' E 003°11'0 0.0
2017-Jun-17 03:00N 51°21' E 003°11'0 0.0
2017-Jun-17 02:30N 51°21' E 003°11'0 0.0
2017-Jun-17 02:00N 51°21' E 003°11'0 0.0
2017-Jun-17 01:30N 51°21' E 003°11'0 0.0
2017-Jun-17 01:00N 51°21' E 003°11'0 0.0
2017-Jun-17 00:30N 51°21' E 003°11'0 0.0
2017-Jun-17 00:00N 51°21' E 003°11'0 0.0
2017-Jun-16 23:30N 51°21' E 003°11'0 0.0
2017-Jun-16 23:00N 51°21' E 003°11'0 0.0
2017-Jun-16 22:30N 51°21' E 003°11'0 0.0
2017-Jun-16 22:01N 51°21' E 003°11'2 3.1
2017-Jun-16 21:30N 51°22' E 003°11'713.8
2017-Jun-16 21:00N 51°24' E 002°60'917.0
2017-Jun-16 20:30N 51°21' E 002°47'816.3
2017-Jun-16 20:01N 51°22' E 002°34'918.0
2017-Jun-16 19:31N 51°19' E 002°20'917.0
2017-Jun-16 19:01N 51°20' E 002°06'815.8
2017-Jun-16 18:31N 51°25' E 001°57'815.6
2017-Jun-16 18:01N 51°29' E 001°46'816.5
2017-Jun-16 17:30N 51°27' E 001°33'5 9.5
2017-Jun-16 17:00N 51°27' E 001°25'816.4
2017-Jun-16 16:30N 51°29' E 001°12'815.9
2017-Jun-16 16:00N 51°29' E 000°60'815.6
2017-Jun-16 15:30N 51°28' E 000°47'4 8.7
2017-Jun-16 15:00N 51°26' E 000°41'0 0.0
2017-Jun-16 14:30N 51°26' E 000°41'0 0.0
2017-Jun-16 13:29N 51°26' E 000°41'0 0.0
2017-Jun-16 13:00N 51°26' E 000°41'0 0.0
2017-Jun-16 12:30N 51°26' E 000°41'0 0.0
2017-Jun-16 11:58N 51°26' E 000°41'0 0.0
2017-Jun-16 11:28N 51°26' E 000°41'0 0.0
2017-Jun-16 10:59N 51°26' E 000°41'0 0.0
2017-Jun-16 10:29N 51°26' E 000°41'0 0.0
2017-Jun-16 09:58N 51°26' E 000°41'0 0.0
2017-Jun-16 09:28N 51°26' E 000°41'0 0.0
2017-Jun-16 08:57N 51°26' E 000°41'0 0.0
2017-Jun-16 08:30N 51°26' E 000°41'0 0.0
2017-Jun-16 08:00N 51°26' E 000°41'0 0.4
2017-Jun-16 07:30N 51°26' E 000°41'3 7.0
2017-Jun-16 07:01N 51°28' E 000°46'714.4
2017-Jun-16 06:30N 51°29' E 000°58'714.4
2017-Jun-16 06:00N 51°29' E 001°09'815.0
2017-Jun-16 05:28N 51°28' E 001°22'5 9.9
2017-Jun-16 05:00N 51°26' E 001°28'0 0.5
2017-Jun-16 04:30N 51°25' E 001°28'0 0.2
2017-Jun-16 04:00N 51°25' E 001°28'0 0.1
2017-Jun-16 03:30N 51°25' E 001°28'0 0.1
2017-Jun-16 03:01N 51°25' E 001°28'0 0.0
2017-Jun-16 02:30N 51°25' E 001°28'0 0.3
2017-Jun-16 02:00N 51°25' E 001°28'0 0.2
2017-Jun-16 01:30N 51°25' E 001°28'0 0.1
2017-Jun-16 01:00N 51°25' E 001°28'0 0.0
2017-Jun-16 00:30N 51°25' E 001°28'0 0.1
2017-Jun-16 00:00N 51°25' E 001°28'0 0.0
2017-Jun-15 23:30N 51°25' E 001°28'0 0.0
2017-Jun-15 23:00N 51°25' E 001°28'0 0.0
2017-Jun-15 22:30N 51°25' E 001°28'0 0.1
2017-Jun-15 22:00N 51°25' E 001°28'4 7.6
2017-Jun-15 21:30N 51°28' E 001°32'815.6
2017-Jun-15 21:00N 51°34' E 001°40'714.4
2017-Jun-15 20:30N 51°41' E 001°45'815.2
2017-Jun-15 20:01N 51°48' E 001°44'714.6
2017-Jun-15 19:30N 51°55' E 001°45'714.0
2017-Jun-15 19:00N 52°02' E 001°47'713.9
2017-Jun-15 18:31N 52°09' E 001°48'1113.9
2017-Jun-15 17:43N 52°20' E 001°52'312.1
2017-Jun-15 17:28N 52°23' E 001°52'611.9
2017-Jun-15 16:59N 52°29' E 001°54'611.7
2017-Jun-15 16:30N 52°34' E 001°55'612.5
2017-Jun-15 16:00N 52°41' E 001°55'612.2
2017-Jun-15 15:30N 52°46' E 001°52'713.9
2017-Jun-15 15:00N 52°50' E 001°42'1413.9
2017-Jun-15 14:00N 53°00' E 001°27'714.7
2017-Jun-15 13:30N 53°06' E 001°20'714.7
2017-Jun-15 13:00N 53°13' E 001°15'714.6
2017-Jun-15 12:31N 53°20' E 001°10'4714.4
2017-Jun-15 09:14N 53°57' E 000°22'315.0
2017-Jun-15 09:00N 53°60' E 000°18'815.3
2017-Jun-15 08:31N 54°06' E 000°10'815.6
2017-Jun-15 08:00N 54°12' E 000°01'815.5
2017-Jun-15 07:31N 54°18' W 000°08'815.4
2017-Jun-15 07:01N 54°23' W 000°16'815.6
2017-Jun-15 06:31N 54°29' W 000°25'1413.2
2017-Jun-15 05:27N 54°37' W 000°45'511.4
2017-Jun-15 05:00N 54°38' W 000°54'611.2
2017-Jun-15 04:30N 54°40' W 001°03'  
Track history (hours):
 
Tides and Currents Weather Stations Pressure Air Temp Water Temp Dewpoint Dewpoint Depression Visibility Wind Speed Wind Dir Waves Ship Positions

Vohburg

Last reported at 2017-Jun-25 01:41 UTC. Time now 2017-Jun-25 20:53 UTC.
Position N 58°18' E 021°28'.

Length 140 m; draft 7.2 m.

MMSI: 305773000.

Date/timePositionNaut miles runAvg speedWind from/ knotsBaromVisibWave heightAir tempDewpointWater temp
2017-Jun-25 01:41N 58°18' E 021°28'316.5
2017-Jun-25 01:30N 58°20' E 021°26'816.0
2017-Jun-25 01:00N 58°28' E 021°31'816.2
2017-Jun-25 00:31N 58°35' E 021°37'816.3
2017-Jun-25 00:00N 58°43' E 021°43'816.5
2017-Jun-24 23:30N 58°50' E 021°50'816.2
2017-Jun-24 23:01N 58°58' E 021°55'816.5
2017-Jun-24 22:30N 59°06' E 021°58'816.2
2017-Jun-24 22:00N 59°13' E 022°04'816.5
2017-Jun-24 21:30N 59°20' E 022°14'816.4
2017-Jun-24 21:00N 59°26' E 022°24'816.7
2017-Jun-24 20:30N 59°31' E 022°38'917.0
2017-Jun-24 20:00N 59°33' E 022°54'817.0
2017-Jun-24 19:31N 59°36' E 023°10'817.0
2017-Jun-24 19:00N 59°38' E 023°26'816.9
2017-Jun-24 18:30N 59°41' E 023°42'917.2
2017-Jun-24 18:00N 59°43' E 023°58'917.2
2017-Jun-24 17:30N 59°46' E 024°15'917.4
2017-Jun-24 17:00N 59°48' E 024°31'917.5
2017-Jun-24 16:31N 59°50' E 024°48'917.3
2017-Jun-24 16:00N 59°52' E 025°05'917.6
2017-Jun-24 15:31N 59°53' E 025°23'917.5
2017-Jun-24 15:00N 59°54' E 025°40'1717.5
2017-Jun-24 14:00N 59°59' E 026°13'917.4
2017-Jun-24 13:30N 60°01' E 026°30'917.2
2017-Jun-24 13:00N 60°01' E 026°48'917.1
2017-Jun-24 12:30N 60°00' E 027°05'917.2
2017-Jun-24 12:01N 60°04' E 027°20'917.2
2017-Jun-24 11:30N 60°09' E 027°34'815.7
2017-Jun-24 11:00N 60°11' E 027°49'917.1
2017-Jun-24 10:31N 60°10' E 028°06'816.8
2017-Jun-24 10:00N 60°06' E 028°21'816.4
2017-Jun-24 09:30N 60°03' E 028°36'816.9
2017-Jun-24 09:00N 60°03' E 028°53'816.8
2017-Jun-24 08:30N 60°02' E 029°10'816.5
2017-Jun-24 08:00N 60°02' E 029°27'510.2
2017-Jun-24 07:30N 60°00' E 029°37'3 6.0
2017-Jun-24 07:00N 59°60' E 029°42'1 1.1
2017-Jun-24 06:28N 60°00' E 029°43'0 0.0
2017-Jun-24 05:58N 60°00' E 029°43'0 0.0
2017-Jun-24 05:28N 60°00' E 029°43'0 0.0
2017-Jun-24 04:58N 60°00' E 029°43'0 0.0
2017-Jun-24 04:29N 60°00' E 029°43'0 0.0
2017-Jun-24 03:53N 60°00' E 029°43'0 0.0
2017-Jun-24 03:26N 60°00' E 029°43'0 0.0
2017-Jun-24 02:56N 60°00' E 029°43'0 0.0
2017-Jun-24 02:29N 60°00' E 029°43'0 0.0
2017-Jun-24 01:59N 60°00' E 029°43'0 0.0
2017-Jun-24 01:26N 60°00' E 029°43'0 0.0
2017-Jun-24 00:59N 60°00' E 029°43'0 0.0
2017-Jun-24 00:29N 60°00' E 029°43'0 0.0
2017-Jun-24 00:00N 60°00' E 029°43'0 0.0
2017-Jun-23 23:27N 60°00' E 029°43'0 0.0
2017-Jun-23 22:59N 60°00' E 029°43'0 0.0
2017-Jun-23 22:29N 60°00' E 029°43'0 0.0
2017-Jun-23 21:59N 60°00' E 029°43'0 0.0
2017-Jun-23 21:27N 60°00' E 029°43'0 0.0
2017-Jun-23 20:41N 60°00' E 029°43'0 0.0
2017-Jun-23 20:29N 60°00' E 029°43'0 0.0
2017-Jun-23 19:59N 60°00' E 029°43'0 0.0
2017-Jun-23 19:23N 60°00' E 029°43'0 0.0
2017-Jun-23 18:53N 60°00' E 029°43'0 0.0
2017-Jun-23 18:28N 60°00' E 029°43'0 0.0
2017-Jun-23 17:57N 60°00' E 029°43'0 0.0
2017-Jun-23 17:28N 60°00' E 029°43'0 0.0
2017-Jun-23 16:53N 60°00' E 029°43'0 0.0
2017-Jun-23 16:25N 60°00' E 029°43'0 0.0
2017-Jun-23 16:00N 60°00' E 029°43'0 0.0
2017-Jun-23 15:29N 60°00' E 029°43'0 0.0
2017-Jun-23 14:59N 60°00' E 029°43'0 0.0
2017-Jun-23 14:30N 60°00' E 029°43'1 1.0
2017-Jun-23 13:30N 59°59' E 029°42'611.6
2017-Jun-23 13:00N 60°01' E 029°31'6 0.8
2017-Jun-23 04:36N 60°01' E 029°18'112.8
2017-Jun-23 04:30N 60°01' E 029°16'612.7
2017-Jun-23 04:01N 60°02' E 029°03'510.7
2017-Jun-23 03:30N 60°02' E 028°53'510.9
2017-Jun-23 03:00N 60°02' E 028°42'510.9
2017-Jun-23 02:30N 60°02' E 028°31'510.8
2017-Jun-23 02:00N 60°05' E 028°21'510.6
2017-Jun-23 01:30N 60°07' E 028°12'511.0
2017-Jun-23 01:00N 60°09' E 028°01'611.0
2017-Jun-23 00:30N 60°10' E 027°50'510.1
2017-Jun-23 00:00N 60°09' E 027°41'510.9
2017-Jun-22 23:30N 60°06' E 027°31'510.9
2017-Jun-22 23:00N 60°03' E 027°22'510.9
2017-Jun-22 22:30N 60°01' E 027°13'510.8
2017-Jun-22 22:00N 59°58' E 027°03'611.0
2017-Jun-22 21:30N 59°59' E 026°52'511.0
2017-Jun-22 21:00N 59°59' E 026°41'611.0
2017-Jun-22 20:30N 59°58' E 026°31'611.2
2017-Jun-22 20:00N 59°58' E 026°19'510.9
2017-Jun-22 19:30N 59°58' E 026°09'510.9
2017-Jun-22 19:00N 59°58' E 025°58'510.9
2017-Jun-22 18:30N 59°57' E 025°47'510.9
2017-Jun-22 18:00N 59°57' E 025°36'510.7
2017-Jun-22 17:30N 59°58' E 025°25'510.8
2017-Jun-22 17:00N 60°01' E 025°16'510.3
2017-Jun-22 16:30N 60°05' E 025°11'510.7
2017-Jun-22 16:01N 60°11' E 025°13'2 4.2
2017-Jun-22 15:29N 60°13' E 025°12'0 0.0
2017-Jun-22 14:59N 60°13' E 025°12'0 0.0
2017-Jun-22 14:29N 60°13' E 025°12'0 0.0
2017-Jun-22 13:27N 60°13' E 025°12'0 0.0
2017-Jun-22 13:00N 60°13' E 025°12'0 0.0
2017-Jun-22 12:30N 60°13' E 025°12'0 0.0
2017-Jun-22 12:00N 60°13' E 025°12'0 0.0
2017-Jun-22 11:26N 60°13' E 025°12'0 0.0
2017-Jun-22 10:59N 60°13' E 025°12'0 0.0
2017-Jun-22 10:29N 60°13' E 025°12'0 0.0
2017-Jun-22 09:59N 60°13' E 025°12'0 0.0
2017-Jun-22 09:29N 60°13' E 025°12'0 0.0
2017-Jun-22 09:00N 60°13' E 025°12'0 0.0
2017-Jun-22 08:30N 60°13' E 025°12'0 0.0
2017-Jun-22 07:59N 60°13' E 025°12'0 0.0
2017-Jun-22 07:28N 60°13' E 025°12'0 0.0
2017-Jun-22 06:58N 60°13' E 025°12'0 0.0
2017-Jun-22 06:29N 60°13' E 025°12'0 0.6
2017-Jun-22 06:00N 60°13' E 025°12'4 8.2
2017-Jun-22 05:31N 60°09' E 025°12'815.7
2017-Jun-22 05:01N 60°01' E 025°06'815.9
2017-Jun-22 04:30N 59°55' E 024°58'816.1
2017-Jun-22 04:00N 59°49' E 024°46'815.9
2017-Jun-22 03:30N 59°45' E 024°33'816.0
2017-Jun-22 03:01N 59°43' E 024°17'816.1
2017-Jun-22 02:31N 59°40' E 024°02'816.3
2017-Jun-22 02:00N 59°38' E 023°47'816.2
2017-Jun-22 01:30N 59°35' E 023°32'816.0
2017-Jun-22 01:01N 59°33' E 023°17'816.0
2017-Jun-22 00:30N 59°30' E 023°02'816.0
2017-Jun-22 00:01N 59°27' E 022°47'816.2
2017-Jun-21 23:30N 59°24' E 022°33'816.3
2017-Jun-21 23:00N 59°19' E 022°20'816.3
2017-Jun-21 22:30N 59°13' E 022°08'816.3
2017-Jun-21 22:00N 59°08' E 021°56'816.3
2017-Jun-21 21:30N 59°02' E 021°45'816.7
2017-Jun-21 21:01N 58°56' E 021°35'816.1
2017-Jun-21 20:30N 58°49' E 021°25'816.2
2017-Jun-21 20:00N 58°43' E 021°16'816.4
2017-Jun-21 19:30N 58°36' E 021°06'18815.9
2017-Jun-21 07:43N 56°15' E 017°16'416.2
2017-Jun-21 07:30N 56°13' E 017°11'816.1
2017-Jun-21 07:00N 56°08' E 016°59'816.2
2017-Jun-21 06:30N 56°04' E 016°48'816.3
2017-Jun-21 06:00N 55°60' E 016°35'816.3
2017-Jun-21 05:30N 55°56' E 016°22'816.3
2017-Jun-21 05:00N 55°52' E 016°09'816.3
2017-Jun-21 04:30N 55°48' E 015°57'816.2
2017-Jun-21 04:00N 55°44' E 015°44'816.3
2017-Jun-21 03:30N 55°39' E 015°32'816.2
2017-Jun-21 03:00N 55°36' E 015°19'816.5
2017-Jun-21 02:30N 55°32' E 015°06'816.2
2017-Jun-21 02:00N 55°28' E 014°54'816.3
2017-Jun-21 01:30N 55°24' E 014°41'816.1
2017-Jun-21 01:00N 55°18' E 014°31'816.5
2017-Jun-21 00:31N 55°12' E 014°22'816.4
2017-Jun-21 00:01N 55°06' E 014°13'816.3
2017-Jun-20 23:30N 55°00' E 014°03'816.6
2017-Jun-20 23:00N 54°57' E 013°49'816.7
2017-Jun-20 22:30N 54°54' E 013°36'816.5
2017-Jun-20 22:00N 54°50' E 013°23'1616.2
2017-Jun-20 21:02N 54°45' E 012°57'016.3
2017-Jun-20 21:00N 54°45' E 012°56'1616.1
2017-Jun-20 20:02N 54°37' E 012°33'016.1
2017-Jun-20 20:00N 54°37' E 012°32'816.2
2017-Jun-20 19:29N 54°32' E 012°20'815.5
2017-Jun-20 19:00N 54°26' E 012°13'816.4
2017-Jun-20 18:30N 54°22' E 012°01'2416.0
2017-Jun-20 16:59N 54°09' E 011°25'815.9
2017-Jun-20 16:30N 54°06' E 011°13'4 0.1
2017-Jun-19 14:48N 54°09' E 011°10'1813.5
2017-Jun-19 13:27N 54°25' E 011°24'613.3
2017-Jun-19 13:01N 54°30' E 011°20'713.4
2017-Jun-19 12:30N 54°34' E 011°11'714.7
2017-Jun-19 12:01N 54°38' E 011°00'713.4
2017-Jun-19 11:30N 54°43' E 010°52'713.7
2017-Jun-19 11:01N 54°50' E 010°51'713.8
2017-Jun-19 10:31N 54°56' E 010°55'713.7
2017-Jun-19 10:00N 55°02' E 011°01'714.0
2017-Jun-19 09:31N 55°09' E 011°03'712.7
2017-Jun-19 08:59N 55°16' E 011°04'713.8
2017-Jun-19 08:29N 55°22' E 011°01'3013.0
2017-Jun-19 06:11N 55°52' E 010°52'3513.5
2017-Jun-19 03:35N 56°26' E 011°05'114.5
2017-Jun-19 03:30N 56°27' E 011°05'714.1
2017-Jun-19 03:00N 56°34' E 011°04'713.5
2017-Jun-19 02:30N 56°41' E 011°02'713.8
2017-Jun-19 02:00N 56°47' E 010°56'714.2
2017-Jun-19 01:30N 56°54' E 010°50'714.5
2017-Jun-19 01:00N 57°01' E 010°50'714.9
2017-Jun-19 00:30N 57°08' E 010°46'714.8
2017-Jun-19 00:00N 57°15' E 010°43'815.0
2017-Jun-18 23:30N 57°23' E 010°42'815.4
2017-Jun-18 23:00N 57°30' E 010°44'715.2
2017-Jun-18 22:30N 57°38' E 010°45'815.9
2017-Jun-18 22:00N 57°46' E 010°46'816.5
2017-Jun-18 21:30N 57°46' E 010°31'816.9
2017-Jun-18 21:00N 57°43' E 010°16'816.7
2017-Jun-18 20:30N 57°40' E 010°01'816.4
2017-Jun-18 20:00N 57°36' E 009°47'816.1
2017-Jun-18 19:30N 57°32' E 009°34'11515.8
2017-Jun-18 12:13N 56°07' E 007°13'916.3
2017-Jun-18 11:40N 55°59' E 007°04'316.2
2017-Jun-18 11:28N 55°56' E 007°01'716.3
2017-Jun-18 11:00N 55°50' E 006°55'816.3
2017-Jun-18 10:30N 55°43' E 006°47'816.2
2017-Jun-18 10:00N 55°36' E 006°40'816.2
2017-Jun-18 09:30N 55°29' E 006°32'816.3
2017-Jun-18 09:00N 55°22' E 006°25'2116.1
2017-Jun-18 07:41N 55°04' E 006°05'7916.4
2017-Jun-18 02:50N 53°54' E 005°01'616.8
2017-Jun-18 02:29N 53°48' E 004°58'1116.8
2017-Jun-18 01:50N 53°38' E 004°52'616.7
2017-Jun-18 01:30N 53°33' E 004°48'817.0
2017-Jun-18 01:00N 53°25' E 004°42'917.3
2017-Jun-18 00:31N 53°17' E 004°37'918.0
2017-Jun-18 00:01N 53°09' E 004°30'917.6
2017-Jun-17 23:30N 53°01' E 004°23'917.8
2017-Jun-17 23:00N 52°54' E 004°16'917.3
2017-Jun-17 22:30N 52°46' E 004°09'917.4
2017-Jun-17 22:00N 52°39' E 003°59'917.5
2017-Jun-17 21:30N 52°33' E 003°50'917.5
2017-Jun-17 21:00N 52°26' E 003°41'917.7
2017-Jun-17 20:30N 52°18' E 003°36'918.8
2017-Jun-17 20:00N 52°09' E 003°29'816.6
2017-Jun-17 19:30N 52°01' E 003°25'918.2
2017-Jun-17 19:00N 51°52' E 003°21'816.1
2017-Jun-17 18:30N 51°45' E 003°15'917.4
2017-Jun-17 18:00N 51°37' E 003°11'815.9
2017-Jun-17 17:30N 51°31' E 003°02'917.2
2017-Jun-17 17:00N 51°28' E 002°49'611.7
2017-Jun-17 16:30N 51°22' E 002°47'816.5
2017-Jun-17 16:00N 51°24' E 003°00'714.7
2017-Jun-17 15:30N 51°22' E 003°12'1 1.5
2017-Jun-17 14:58N 51°21' E 003°11'0 0.0
2017-Jun-17 14:28N 51°21' E 003°11'0 0.0
2017-Jun-17 13:28N 51°21' E 003°11'0 0.1
2017-Jun-17 12:58N 51°21' E 003°11'0 0.1
2017-Jun-17 12:29N 51°21' E 003°11'0 0.0
2017-Jun-17 11:56N 51°21' E 003°11'0 0.0
2017-Jun-17 11:28N 51°21' E 003°11'0 0.0
2017-Jun-17 10:58N 51°21' E 003°11'0 0.0
2017-Jun-17 10:30N 51°21' E 003°11'0 0.0
2017-Jun-17 09:58N 51°21' E 003°11'0 0.0
2017-Jun-17 09:28N 51°21' E 003°11'0 0.0
2017-Jun-17 08:59N 51°21' E 003°11'0 0.0
2017-Jun-17 08:30N 51°21' E 003°11'0 0.0
2017-Jun-17 07:59N 51°21' E 003°11'0 0.0
2017-Jun-17 07:28N 51°21' E 003°11'0 0.0
2017-Jun-17 06:58N 51°21' E 003°11'0 0.0
2017-Jun-17 06:28N 51°21' E 003°11'0 0.0
2017-Jun-17 05:58N 51°21' E 003°11'0 0.0
2017-Jun-17 05:28N 51°21' E 003°11'0 0.0
2017-Jun-17 05:00N 51°21' E 003°11'0 0.0
2017-Jun-17 04:30N 51°21' E 003°11'0 0.0
2017-Jun-17 04:00N 51°21' E 003°11'0 0.0
2017-Jun-17 03:30N 51°21' E 003°11'0 0.0
2017-Jun-17 03:00N 51°21' E 003°11'0 0.0
2017-Jun-17 02:30N 51°21' E 003°11'0 0.0
2017-Jun-17 02:00N 51°21' E 003°11'0 0.0
2017-Jun-17 01:30N 51°21' E 003°11'0 0.0
2017-Jun-17 01:00N 51°21' E 003°11'0 0.0
2017-Jun-17 00:30N 51°21' E 003°11'0 0.0
2017-Jun-17 00:00N 51°21' E 003°11'0 0.0
2017-Jun-16 23:30N 51°21' E 003°11'0 0.0
2017-Jun-16 23:00N 51°21' E 003°11'0 0.0
2017-Jun-16 22:30N 51°21' E 003°11'0 0.0
2017-Jun-16 22:01N 51°21' E 003°11'2 3.1
2017-Jun-16 21:30N 51°22' E 003°11'713.8
2017-Jun-16 21:00N 51°24' E 002°60'917.0
2017-Jun-16 20:30N 51°21' E 002°47'816.3
2017-Jun-16 20:01N 51°22' E 002°34'918.0
2017-Jun-16 19:31N 51°19' E 002°20'917.0
2017-Jun-16 19:01N 51°20' E 002°06'815.8
2017-Jun-16 18:31N 51°25' E 001°57'815.6
2017-Jun-16 18:01N 51°29' E 001°46'816.5
2017-Jun-16 17:30N 51°27' E 001°33'5 9.5
2017-Jun-16 17:00N 51°27' E 001°25'816.4
2017-Jun-16 16:30N 51°29' E 001°12'815.9
2017-Jun-16 16:00N 51°29' E 000°60'815.6
2017-Jun-16 15:30N 51°28' E 000°47'4 8.7
2017-Jun-16 15:00N 51°26' E 000°41'0 0.0
2017-Jun-16 14:30N 51°26' E 000°41'0 0.0
2017-Jun-16 13:29N 51°26' E 000°41'0 0.0
2017-Jun-16 13:00N 51°26' E 000°41'0 0.0
2017-Jun-16 12:30N 51°26' E 000°41'0 0.0
2017-Jun-16 11:58N 51°26' E 000°41'0 0.0
2017-Jun-16 11:28N 51°26' E 000°41'0 0.0
2017-Jun-16 10:59N 51°26' E 000°41'0 0.0
2017-Jun-16 10:29N 51°26' E 000°41'0 0.0
2017-Jun-16 09:58N 51°26' E 000°41'0 0.0
2017-Jun-16 09:28N 51°26' E 000°41'0 0.0
2017-Jun-16 08:57N 51°26' E 000°41'0 0.0
2017-Jun-16 08:30N 51°26' E 000°41'0 0.0
2017-Jun-16 08:00N 51°26' E 000°41'0 0.4
2017-Jun-16 07:30N 51°26' E 000°41'3 7.0
2017-Jun-16 07:01N 51°28' E 000°46'714.4
2017-Jun-16 06:30N 51°29' E 000°58'714.4
2017-Jun-16 06:00N 51°29' E 001°09'815.0
2017-Jun-16 05:28N 51°28' E 001°22'5 9.9
2017-Jun-16 05:00N 51°26' E 001°28'0 0.5
2017-Jun-16 04:30N 51°25' E 001°28'0 0.2
2017-Jun-16 04:00N 51°25' E 001°28'0 0.1
2017-Jun-16 03:30N 51°25' E 001°28'0 0.1
2017-Jun-16 03:01N 51°25' E 001°28'0 0.0
2017-Jun-16 02:30N 51°25' E 001°28'0 0.3
2017-Jun-16 02:00N 51°25' E 001°28'0 0.2
2017-Jun-16 01:30N 51°25' E 001°28'0 0.1
2017-Jun-16 01:00N 51°25' E 001°28'0 0.0
2017-Jun-16 00:30N 51°25' E 001°28'0 0.1
2017-Jun-16 00:00N 51°25' E 001°28'0 0.0
2017-Jun-15 23:30N 51°25' E 001°28'0 0.0
2017-Jun-15 23:00N 51°25' E 001°28'0 0.0
2017-Jun-15 22:30N 51°25' E 001°28'0 0.1
2017-Jun-15 22:00N 51°25' E 001°28'4 7.6
2017-Jun-15 21:30N 51°28' E 001°32'815.6
2017-Jun-15 21:00N 51°34' E 001°40'714.4
2017-Jun-15 20:30N 51°41' E 001°45'815.2
2017-Jun-15 20:01N 51°48' E 001°44'714.6
2017-Jun-15 19:30N 51°55' E 001°45'714.0
2017-Jun-15 19:00N 52°02' E 001°47'713.9
2017-Jun-15 18:31N 52°09' E 001°48'1113.9
2017-Jun-15 17:43N 52°20' E 001°52'312.1
2017-Jun-15 17:28N 52°23' E 001°52'611.9
2017-Jun-15 16:59N 52°29' E 001°54'611.7
2017-Jun-15 16:30N 52°34' E 001°55'612.5
2017-Jun-15 16:00N 52°41' E 001°55'612.2
2017-Jun-15 15:30N 52°46' E 001°52'713.9
2017-Jun-15 15:00N 52°50' E 001°42'1413.9
2017-Jun-15 14:00N 53°00' E 001°27'714.7
2017-Jun-15 13:30N 53°06' E 001°20'714.7
2017-Jun-15 13:00N 53°13' E 001°15'714.6
2017-Jun-15 12:31N 53°20' E 001°10'4714.4
2017-Jun-15 09:14N 53°57' E 000°22'315.0
2017-Jun-15 09:00N 53°60' E 000°18'815.3
2017-Jun-15 08:31N 54°06' E 000°10'815.6
2017-Jun-15 08:00N 54°12' E 000°01'815.5
2017-Jun-15 07:31N 54°18' W 000°08'815.4
2017-Jun-15 07:01N 54°23' W 000°16'815.6
2017-Jun-15 06:31N 54°29' W 000°25'1413.2
2017-Jun-15 05:27N 54°37' W 000°45'511.4
2017-Jun-15 05:00N 54°38' W 000°54'611.2
2017-Jun-15 04:30N 54°40' W 001°03'  

Dump ship's entire track history